Emden — 3ERP5 — position and weather

sailwx.info

Track history (hours):
 
Tides and Currents Weather Stations Pressure Air Temp Water Temp Dewpoint Dewpoint Depression Visibility Wind Speed Wind Dir Waves Ship Positions

Emden

Last reported at 2016-Jun-29 17:31 UTC. Time now 2016-Jun-29 18:19 UTC.
Position N 38°31' W 008°52'.

Length 177 m; draft 7.7 m.

Type: Ship. MMSI: 355051000.

Date/timePositionNaut miles runAvg speedWind from/ knotsBaromVisibWave heightAir tempDewpointWater temp
2016-Jun-29 17:31N 38°31' W 008°52'0 0.0
2016-Jun-29 16:25N 38°31' W 008°52'0 0.0
2016-Jun-29 15:31N 38°31' W 008°52'0 0.0
2016-Jun-29 14:31N 38°31' W 008°52'2 2.2
2016-Jun-29 13:33N 38°30' W 008°55'10 9.7
2016-Jun-29 12:33N 38°23' W 009°02'1110.6
2016-Jun-29 11:33N 38°20' W 009°15'1313.4
2016-Jun-29 10:33N 38°21' W 009°32'1414.2
2016-Jun-29 09:33N 38°27' W 009°48'1414.2
2016-Jun-29 08:34N 38°34' W 010°04'1414.2
2016-Jun-29 07:33N 38°48' W 010°06'1414.2
2016-Jun-29 06:33N 39°03' W 010°07'3014.4
2016-Jun-29 04:29N 39°32' W 010°07'1414.5
2016-Jun-29 03:32N 39°46' W 010°06'1515.4
2016-Jun-29 02:33N 40°01' W 010°07'1615.9
2016-Jun-29 01:33N 40°17' W 010°07'23212.9
2016-Jun-28 07:32N 43°52' W 008°06'1514.4
2016-Jun-28 06:28N 43°53' W 007°45'2714.1
2016-Jun-28 04:33N 43°51' W 007°08'4414.5
2016-Jun-28 01:31N 43°47' W 006°07'1515.9
2016-Jun-28 00:33N 43°46' W 005°46'1615.9
2016-Jun-27 23:33N 43°43' W 005°24'1615.7
2016-Jun-27 22:33N 43°40' W 005°03'  
2016-Jun-25 11:33N 50°36' W 006°00'7914.3
2016-Jun-25 06:03N 51°55' W 005°54'917.9
2016-Jun-25 05:33N 52°04' W 005°54'1818.3
2016-Jun-25 04:33N 52°22' W 005°54'17 0.6
2016-Jun-23 23:28N 52°39' W 005°50'1515.9
2016-Jun-23 22:34N 52°25' W 005°47'1616.1
2016-Jun-23 21:33N 52°08' W 005°47'6415.9
2016-Jun-23 17:32N 51°04' W 005°52'1515.4
2016-Jun-23 16:33N 50°49' W 005°53'1615.5
2016-Jun-23 15:32N 50°33' W 005°54'1515.3
2016-Jun-23 14:33N 50°18' W 005°54'1615.5
2016-Jun-23 13:32N 50°03' W 005°55'1413.4
2016-Jun-23 12:30N 49°51' W 005°44'1915.2
2016-Jun-23 11:15N 49°50' W 005°15'1115.2
2016-Jun-23 10:32N 49°51' W 004°58'1514.9
2016-Jun-23 09:31N 49°53' W 004°34'1414.4
2016-Jun-23 08:34N 49°53' W 004°13'1413.7
2016-Jun-23 07:33N 49°56' W 003°52'2914.7
2016-Jun-23 05:33N 49°59' W 003°07'1616.2
2016-Jun-23 04:33N 50°03' W 002°42'7717.3
2016-Jun-23 00:04N 50°24' W 000°46'713.7
2016-Jun-22 23:33N 50°25' W 000°35'1313.5
2016-Jun-22 22:33N 50°29' W 000°15'1413.2
2016-Jun-22 21:29N 50°33' E 000°07'1313.8
2016-Jun-22 20:33N 50°37' E 000°26'3316.0
2016-Jun-22 18:30N 50°55' E 001°09'1516.3
2016-Jun-22 17:34N 51°05' E 001°28'1514.6
2016-Jun-22 16:33N 51°14' E 001°46'1413.8
2016-Jun-22 15:33N 51°26' E 001°59'1313.5
2016-Jun-22 14:33N 51°36' E 002°12'1413.6
2016-Jun-22 13:32N 51°47' E 002°27'6415.8
2016-Jun-22 09:30N 52°37' E 003°31'1515.7
2016-Jun-22 08:33N 52°49' E 003°46'1514.7
2016-Jun-22 07:33N 52°60' E 004°02'1413.7
2016-Jun-22 06:32N 53°08' E 004°21'1312.8
2016-Jun-22 05:30N 53°20' E 004°31'1313.1
2016-Jun-22 04:32N 53°31' E 004°43'1414.8
2016-Jun-22 03:33N 53°35' E 005°06'1615.8
2016-Jun-22 02:33N 53°40' E 005°31'1615.8
2016-Jun-22 01:33N 53°44' E 005°57'1514.7
2016-Jun-22 00:33N 53°38' E 006°20'1212.3
2016-Jun-21 23:33N 53°34' E 006°39'1413.7
2016-Jun-21 22:33N 53°25' E 006°56'9 8.9
2016-Jun-21 21:33N 53°20' E 007°08'1 1.4
2016-Jun-21 20:33N 53°20' E 007°11'0 0.0
2016-Jun-21 19:33N 53°20' E 007°11'0 0.0
2016-Jun-21 18:33N 53°20' E 007°11'0 0.0
2016-Jun-21 17:33N 53°20' E 007°11'0 0.0
2016-Jun-21 16:33N 53°20' E 007°11'0 0.0
2016-Jun-21 15:33N 53°20' E 007°11'0 0.0
2016-Jun-21 14:30N 53°20' E 007°11'0 0.0
2016-Jun-21 13:33N 53°20' E 007°11'0 0.0
2016-Jun-21 12:31N 53°20' E 007°11'0 0.0
2016-Jun-21 11:22N 53°20' E 007°11'0 0.0
2016-Jun-21 10:31N 53°20' E 007°11'0 0.0
2016-Jun-21 09:31N 53°20' E 007°11'0 0.0
2016-Jun-21 08:31N 53°20' E 007°11'0 0.0
2016-Jun-21 07:28N 53°20' E 007°11'0 0.0
2016-Jun-21 04:31N 53°20' E 007°11'0 0.0
2016-Jun-21 03:31N 53°20' E 007°11'0 0.0
2016-Jun-21 02:31N 53°20' E 007°11'0 0.0
2016-Jun-21 01:28N 53°20' E 007°11'0 0.0
2016-Jun-21 00:31N 53°20' E 007°11'0 0.1
2016-Jun-20 23:33N 53°20' E 007°11'7 6.7
2016-Jun-20 22:33N 53°20' E 006°60'1414.5
2016-Jun-20 21:34N 53°32' E 006°45'1515.0
2016-Jun-20 20:33N 53°37' E 006°21'5 5.4
2016-Jun-20 19:33N 53°40' E 006°13'8 7.5
2016-Jun-20 18:33N 53°41' E 006°00'1313.1
2016-Jun-20 17:33N 53°36' E 005°40'1413.6
2016-Jun-20 16:33N 53°32' E 005°18'1313.3
2016-Jun-20 15:33N 53°28' E 004°57'1513.1
2016-Jun-20 14:25N 53°18' E 004°37'1213.7
2016-Jun-20 13:33N 53°08' E 004°28'1313.2
2016-Jun-20 12:33N 52°56' E 004°19'1312.7
2016-Jun-20 11:34N 52°45' E 004°09'1212.5
2016-Jun-20 10:34N 52°36' E 003°55'1312.2
2016-Jun-20 09:30N 52°27' E 003°40'6812.7
2016-Jun-20 04:08N 51°37' E 002°24'814.2
2016-Jun-20 03:33N 51°30' E 002°16'1515.0
2016-Jun-20 02:33N 51°17' E 002°07'1515.4
2016-Jun-20 01:33N 51°07' E 001°48'1716.8
2016-Jun-20 00:33N 50°54' E 001°30'6014.9
2016-Jun-19 20:33N 50°21' E 000°12'1716.7
2016-Jun-19 19:33N 50°16' W 000°13'1717.2
2016-Jun-19 18:33N 50°12' W 000°39'  
Track history (hours):
 
Tides and Currents Weather Stations Pressure Air Temp Water Temp Dewpoint Dewpoint Depression Visibility Wind Speed Wind Dir Waves Ship Positions

Emden

Last reported at 2016-Jun-29 17:31 UTC. Time now 2016-Jun-29 18:19 UTC.
Position N 38°31' W 008°52'.

Length 177 m; draft 7.7 m.

Type: Ship. MMSI: 355051000.

Date/timePositionNaut miles runAvg speedWind from/ knotsBaromVisibWave heightAir tempDewpointWater temp
2016-Jun-29 17:31N 38°31' W 008°52'0 0.0
2016-Jun-29 16:25N 38°31' W 008°52'0 0.0
2016-Jun-29 15:31N 38°31' W 008°52'0 0.0
2016-Jun-29 14:31N 38°31' W 008°52'2 2.2
2016-Jun-29 13:33N 38°30' W 008°55'10 9.7
2016-Jun-29 12:33N 38°23' W 009°02'1110.6
2016-Jun-29 11:33N 38°20' W 009°15'1313.4
2016-Jun-29 10:33N 38°21' W 009°32'1414.2
2016-Jun-29 09:33N 38°27' W 009°48'1414.2
2016-Jun-29 08:34N 38°34' W 010°04'1414.2
2016-Jun-29 07:33N 38°48' W 010°06'1414.2
2016-Jun-29 06:33N 39°03' W 010°07'3014.4
2016-Jun-29 04:29N 39°32' W 010°07'1414.5
2016-Jun-29 03:32N 39°46' W 010°06'1515.4
2016-Jun-29 02:33N 40°01' W 010°07'1615.9
2016-Jun-29 01:33N 40°17' W 010°07'23212.9
2016-Jun-28 07:32N 43°52' W 008°06'1514.4
2016-Jun-28 06:28N 43°53' W 007°45'2714.1
2016-Jun-28 04:33N 43°51' W 007°08'4414.5
2016-Jun-28 01:31N 43°47' W 006°07'1515.9
2016-Jun-28 00:33N 43°46' W 005°46'1615.9
2016-Jun-27 23:33N 43°43' W 005°24'1615.7
2016-Jun-27 22:33N 43°40' W 005°03'  
2016-Jun-25 11:33N 50°36' W 006°00'7914.3
2016-Jun-25 06:03N 51°55' W 005°54'917.9
2016-Jun-25 05:33N 52°04' W 005°54'1818.3
2016-Jun-25 04:33N 52°22' W 005°54'17 0.6
2016-Jun-23 23:28N 52°39' W 005°50'1515.9
2016-Jun-23 22:34N 52°25' W 005°47'1616.1
2016-Jun-23 21:33N 52°08' W 005°47'6415.9
2016-Jun-23 17:32N 51°04' W 005°52'1515.4
2016-Jun-23 16:33N 50°49' W 005°53'1615.5
2016-Jun-23 15:32N 50°33' W 005°54'1515.3
2016-Jun-23 14:33N 50°18' W 005°54'1615.5
2016-Jun-23 13:32N 50°03' W 005°55'1413.4
2016-Jun-23 12:30N 49°51' W 005°44'1915.2
2016-Jun-23 11:15N 49°50' W 005°15'1115.2
2016-Jun-23 10:32N 49°51' W 004°58'1514.9
2016-Jun-23 09:31N 49°53' W 004°34'1414.4
2016-Jun-23 08:34N 49°53' W 004°13'1413.7
2016-Jun-23 07:33N 49°56' W 003°52'2914.7
2016-Jun-23 05:33N 49°59' W 003°07'1616.2
2016-Jun-23 04:33N 50°03' W 002°42'7717.3
2016-Jun-23 00:04N 50°24' W 000°46'713.7
2016-Jun-22 23:33N 50°25' W 000°35'1313.5
2016-Jun-22 22:33N 50°29' W 000°15'1413.2
2016-Jun-22 21:29N 50°33' E 000°07'1313.8
2016-Jun-22 20:33N 50°37' E 000°26'3316.0
2016-Jun-22 18:30N 50°55' E 001°09'1516.3
2016-Jun-22 17:34N 51°05' E 001°28'1514.6
2016-Jun-22 16:33N 51°14' E 001°46'1413.8
2016-Jun-22 15:33N 51°26' E 001°59'1313.5
2016-Jun-22 14:33N 51°36' E 002°12'1413.6
2016-Jun-22 13:32N 51°47' E 002°27'6415.8
2016-Jun-22 09:30N 52°37' E 003°31'1515.7
2016-Jun-22 08:33N 52°49' E 003°46'1514.7
2016-Jun-22 07:33N 52°60' E 004°02'1413.7
2016-Jun-22 06:32N 53°08' E 004°21'1312.8
2016-Jun-22 05:30N 53°20' E 004°31'1313.1
2016-Jun-22 04:32N 53°31' E 004°43'1414.8
2016-Jun-22 03:33N 53°35' E 005°06'1615.8
2016-Jun-22 02:33N 53°40' E 005°31'1615.8
2016-Jun-22 01:33N 53°44' E 005°57'1514.7
2016-Jun-22 00:33N 53°38' E 006°20'1212.3
2016-Jun-21 23:33N 53°34' E 006°39'1413.7
2016-Jun-21 22:33N 53°25' E 006°56'9 8.9
2016-Jun-21 21:33N 53°20' E 007°08'1 1.4
2016-Jun-21 20:33N 53°20' E 007°11'0 0.0
2016-Jun-21 19:33N 53°20' E 007°11'0 0.0
2016-Jun-21 18:33N 53°20' E 007°11'0 0.0
2016-Jun-21 17:33N 53°20' E 007°11'0 0.0
2016-Jun-21 16:33N 53°20' E 007°11'0 0.0
2016-Jun-21 15:33N 53°20' E 007°11'0 0.0
2016-Jun-21 14:30N 53°20' E 007°11'0 0.0
2016-Jun-21 13:33N 53°20' E 007°11'0 0.0
2016-Jun-21 12:31N 53°20' E 007°11'0 0.0
2016-Jun-21 11:22N 53°20' E 007°11'0 0.0
2016-Jun-21 10:31N 53°20' E 007°11'0 0.0
2016-Jun-21 09:31N 53°20' E 007°11'0 0.0
2016-Jun-21 08:31N 53°20' E 007°11'0 0.0
2016-Jun-21 07:28N 53°20' E 007°11'0 0.0
2016-Jun-21 04:31N 53°20' E 007°11'0 0.0
2016-Jun-21 03:31N 53°20' E 007°11'0 0.0
2016-Jun-21 02:31N 53°20' E 007°11'0 0.0
2016-Jun-21 01:28N 53°20' E 007°11'0 0.0
2016-Jun-21 00:31N 53°20' E 007°11'0 0.1
2016-Jun-20 23:33N 53°20' E 007°11'7 6.7
2016-Jun-20 22:33N 53°20' E 006°60'1414.5
2016-Jun-20 21:34N 53°32' E 006°45'1515.0
2016-Jun-20 20:33N 53°37' E 006°21'5 5.4
2016-Jun-20 19:33N 53°40' E 006°13'8 7.5
2016-Jun-20 18:33N 53°41' E 006°00'1313.1
2016-Jun-20 17:33N 53°36' E 005°40'1413.6
2016-Jun-20 16:33N 53°32' E 005°18'1313.3
2016-Jun-20 15:33N 53°28' E 004°57'1513.1
2016-Jun-20 14:25N 53°18' E 004°37'1213.7
2016-Jun-20 13:33N 53°08' E 004°28'1313.2
2016-Jun-20 12:33N 52°56' E 004°19'1312.7
2016-Jun-20 11:34N 52°45' E 004°09'1212.5
2016-Jun-20 10:34N 52°36' E 003°55'1312.2
2016-Jun-20 09:30N 52°27' E 003°40'6812.7
2016-Jun-20 04:08N 51°37' E 002°24'814.2
2016-Jun-20 03:33N 51°30' E 002°16'1515.0
2016-Jun-20 02:33N 51°17' E 002°07'1515.4
2016-Jun-20 01:33N 51°07' E 001°48'1716.8
2016-Jun-20 00:33N 50°54' E 001°30'6014.9
2016-Jun-19 20:33N 50°21' E 000°12'1716.7
2016-Jun-19 19:33N 50°16' W 000°13'1717.2
2016-Jun-19 18:33N 50°12' W 000°39'  

Dump ship's entire track history